No particular awareness of the weather is required.    There are no Weather-warnings

My Other Sites:

SYKIA HOMEWEATHERSTATIONsikeaweather.alinos.eu

SYKIA METEOTEMPLATEsykiameteo.alinos.eu

alinos.eualinos.eu



Nearby METAR Reports

   
LGEL - Elefsis (hel-Afb, Greece
Distance from station: E 77 km
Updated: 22-05-2019 01:50
Few Clouds  
Few Clouds  
   Wind: varies 5.6 km/h
Wind: varies 5.6 km/h
Temperature: 20°C
Dew Point: 9°C
Humidity: 49%
Barometer: 1012 hPa
Clouds: Few Clouds
Visibility: More than 10 km
Cloud details: Few Clouds 2500 ft
LGEL 212250Z VRB03KT 9999 FEW025 20/09 Q1012
LGRX - Araxos (civ/Afb), Greece
Distance from station: W 110 km
Updated: 22-05-2019 01:50
Few Clouds  
Few Clouds  
   Wind: Calm
Wind: Calm
Temperature: 14°C
Dew Point: 12°C
Humidity: 88%
Barometer: 1016 hPa
Clouds: Few Clouds
Visibility: More than 10 km
Cloud details: Few Clouds 1800 ft
LGRX 212250Z 00000KT 9999 FEW018 14/12 Q1016
LGAV - Athens/Elef-Ven, Greece
Distance from station: E 113 km
Updated: 22-05-2019 02:20
Clear  
Clear  
   Wind: varies 1.9 km/h
Wind: varies 1.9 km/h
Temperature: 18°C
Dew Point: 12°C
Humidity: 68%
Barometer: 1013 hPa
Visibility: More than 10 km
Cloud details: Clear
LGAV 212320Z VRB01KT CAVOK 18/12 Q1013 NOSIG
LGAD - Andravida (civ/A, Greece
Distance from station: W 124 km
Updated: 22-05-2019 02:20
Clear  
Clear  
   Wind: Calm
Wind: Calm
Temperature: 13°C
Dew Point: 11°C
Humidity: 88%
Barometer: 1015 hPa
Visibility: More than 10 km
Cloud details: Clear
LGAD 212320Z 00000KT CAVOK 13/11 Q1015
LGKL - Kalamata (hel-Af, Greece
Distance from station: SSW 124 km
Updated: 22-05-2019 02:20
Few Clouds  
Few Clouds  
   Wind: NNW 11.1 km/h
Wind: NNW 11.1 km/h
Temperature: 14°C
Dew Point: 9°C
Humidity: 72%
Barometer: 1014 hPa
Clouds: Few Clouds
Visibility: More than 10 km
Cloud details: Few Clouds 8000 ft
LGKL 212320Z 34006KT 9999 FEW080 14/09 Q1014
LGBL - Nea Anchialos, Greece
Distance from station: N 129 km
Updated: 22-05-2019 00:50
NOT Current
Few Clouds  
Few Clouds  
   Wind: WNW 14.8 km/h
Wind: WNW 14.8 km/h
Temperature: 17°C
Dew Point: 3°C
Humidity: 39%
Barometer: 1013 hPa
Clouds: Few Clouds
Visibility: More than 10 km
Cloud details: Few Clouds 3000 ft
LGBL 212150Z 30008KT 9999 FEW030 17/03 Q1013

Script developed by  Saratoga-weather.org Adapted for the template by  Weerstation Leuven

You find our weather info also at:

European Weather Network

Weather Underground

AWEKAS

Citizen Weather Observer Program (CWOP)

HAMweather, WeatherForYou, PWS Weather

UK Metoffice

Equipment we use:

Weather-station
Davis Wireless Vantage Pro2

Davis Wireless Vantage Pro2